createdAt,value
2023-04-08T00:02:16.617Z,8.27
2023-04-08T00:04:45.084Z,8.24
2023-04-08T00:07:13.532Z,8.22
2023-04-08T00:09:41.706Z,8.23
2023-04-08T00:12:11.518Z,8.30
2023-04-08T00:14:41.601Z,8.29
2023-04-08T00:17:10.451Z,8.22
2023-04-08T00:19:38.715Z,8.26
2023-04-08T00:22:06.967Z,8.24
2023-04-08T00:24:36.274Z,8.22
2023-04-08T00:27:04.778Z,8.24
2023-04-08T00:29:34.478Z,8.26
2023-04-08T00:32:03.331Z,8.17
2023-04-08T00:34:31.633Z,8.14
2023-04-08T00:37:01.250Z,8.15
2023-04-08T00:39:29.563Z,8.13
2023-04-08T00:41:57.875Z,8.14
2023-04-08T00:44:26.416Z,8.19
2023-04-08T00:46:56.129Z,8.11
2023-04-08T00:49:24.491Z,8.09
2023-04-08T00:51:52.770Z,8.14
2023-04-08T00:54:21.192Z,8.16
2023-04-08T00:56:49.528Z,8.29
2023-04-08T00:59:19.817Z,8.17
2023-04-08T01:01:56.519Z,8.19
2023-04-08T01:04:34.507Z,8.17
2023-04-08T01:07:09.273Z,8.21
2023-04-08T01:09:40.520Z,8.21
2023-04-08T01:12:14.065Z,8.21
2023-04-08T01:14:46.190Z,8.22
2023-04-08T01:17:14.467Z,8.22
2023-04-08T01:19:45.089Z,8.23
2023-04-08T01:22:24.425Z,8.29
2023-04-08T01:25:00.681Z,8.17
2023-04-08T01:27:33.025Z,8.29
2023-04-08T01:30:04.501Z,8.21
2023-04-08T01:32:34.278Z,8.19
2023-04-08T01:35:03.552Z,8.21
2023-04-08T01:37:34.239Z,8.21
2023-04-08T01:40:03.624Z,8.19
2023-04-08T01:42:35.255Z,8.29
2023-04-08T01:45:05.518Z,8.19
2023-04-08T01:47:35.773Z,8.27
2023-04-08T01:50:05.077Z,8.22
2023-04-08T01:52:36.071Z,8.18
2023-04-08T01:55:05.171Z,8.21
2023-04-08T01:57:38.246Z,8.20
2023-04-08T02:00:10.191Z,8.26
2023-04-08T02:02:53.982Z,8.29
2023-04-08T02:05:22.375Z,8.22
2023-04-08T02:07:50.908Z,8.18
2023-04-08T02:10:19.211Z,8.19
2023-04-08T02:12:48.935Z,8.19
2023-04-08T02:15:17.887Z,8.17
2023-04-08T02:17:49.970Z,8.23
2023-04-08T02:20:25.038Z,8.29
2023-04-08T02:22:59.759Z,8.22
2023-04-08T02:25:30.615Z,8.29
2023-04-08T02:28:01.747Z,8.19
2023-04-08T02:30:32.141Z,8.13
2023-04-08T02:33:03.070Z,8.11
2023-04-08T02:35:32.899Z,8.12
2023-04-08T02:38:01.275Z,8.19
2023-04-08T02:40:32.025Z,8.28
2023-04-08T02:43:01.830Z,8.23
2023-04-08T02:45:33.628Z,8.21
2023-04-08T02:48:02.461Z,8.27
2023-04-08T02:50:30.801Z,8.29
2023-04-08T02:52:59.275Z,8.19
2023-04-08T02:55:27.664Z,8.20
2023-04-08T02:57:56.044Z,8.23
2023-04-08T03:00:26.143Z,8.23
2023-04-08T03:02:54.699Z,8.23
2023-04-08T03:05:23.183Z,8.18
2023-04-08T03:07:51.380Z,8.27
2023-04-08T03:10:19.704Z,8.17
2023-04-08T03:12:48.025Z,8.22
2023-04-08T03:15:16.460Z,8.24
2023-04-08T03:17:46.222Z,8.24
2023-04-08T03:20:14.520Z,8.27
2023-04-08T03:22:42.756Z,8.19
2023-04-08T03:25:11.804Z,8.26
2023-04-08T03:27:41.012Z,8.24
2023-04-08T03:30:10.032Z,8.22
2023-04-08T03:32:38.536Z,8.23
2023-04-08T03:35:09.272Z,8.20
2023-04-08T03:37:37.613Z,8.17
2023-04-08T03:40:06.683Z,8.26
2023-04-08T03:42:35.202Z,8.28
2023-04-08T03:45:03.885Z,8.28
2023-04-08T03:47:32.338Z,8.20
2023-04-08T03:50:00.661Z,8.30
2023-04-08T03:52:30.280Z,8.24
2023-04-08T03:54:58.494Z,8.22
2023-04-08T03:57:26.925Z,8.21
2023-04-08T03:59:55.577Z,8.22
2023-04-08T04:02:23.958Z,8.23
2023-04-08T04:04:52.408Z,8.21
2023-04-08T04:07:20.681Z,8.14
2023-04-08T04:09:54.148Z,8.11
2023-04-08T04:12:22.382Z,8.14
2023-04-08T04:14:50.753Z,8.16
2023-04-08T04:17:19.072Z,8.17
2023-04-08T04:19:47.353Z,8.21
2023-04-08T04:22:15.579Z,8.19
2023-04-08T04:24:48.374Z,8.09
2023-04-08T04:27:18.555Z,8.12
2023-04-08T04:29:46.810Z,8.15
2023-04-08T04:32:15.016Z,8.17
2023-04-08T04:34:44.457Z,8.20
2023-04-08T04:37:12.756Z,8.17
2023-04-08T04:39:41.013Z,8.14
2023-04-08T04:42:09.330Z,8.14
2023-04-08T04:44:38.949Z,8.17
2023-04-08T04:47:07.189Z,8.16
2023-04-08T04:49:35.396Z,8.12
2023-04-08T04:52:03.718Z,8.13
2023-04-08T04:54:31.948Z,8.13
2023-04-08T04:57:01.052Z,8.14
2023-04-08T04:59:29.294Z,8.20
2023-04-08T05:01:58.950Z,8.17
2023-04-08T05:04:27.472Z,8.15
2023-04-08T05:06:55.775Z,8.15
2023-04-08T05:09:24.113Z,8.14
2023-04-08T05:11:52.404Z,8.14
2023-04-08T05:14:20.770Z,8.14
2023-04-08T05:16:49.011Z,8.17
2023-04-08T05:19:18.601Z,8.17
2023-04-08T05:21:46.920Z,8.17
2023-04-08T05:24:15.128Z,8.14
2023-04-08T05:26:43.446Z,8.21
2023-04-08T05:29:11.920Z,8.20
2023-04-08T05:31:40.204Z,8.23
2023-04-08T05:34:08.567Z,8.19
2023-04-08T05:36:38.165Z,8.21
2023-04-08T05:39:06.648Z,8.19
2023-04-08T05:41:34.984Z,8.19
2023-04-08T05:44:03.233Z,8.21
2023-04-08T05:46:31.649Z,8.22
2023-04-08T05:48:59.951Z,8.22
2023-04-08T05:51:28.176Z,8.22
2023-04-08T05:53:57.792Z,8.24
2023-04-08T05:56:26.132Z,8.24
2023-04-08T05:58:54.298Z,8.22
2023-04-08T06:01:22.698Z,8.28
2023-04-08T06:03:52.868Z,8.26
2023-04-08T06:06:21.303Z,8.19
2023-04-08T06:08:50.202Z,8.21
2023-04-08T06:11:19.914Z,8.24
2023-04-08T06:13:48.172Z,8.26
2023-04-08T06:16:20.775Z,8.32
2023-04-08T06:18:50.346Z,8.32
2023-04-08T06:21:18.809Z,8.33
2023-04-08T06:23:47.056Z,8.35
2023-04-08T06:26:15.367Z,8.49
2023-04-08T06:28:45.075Z,8.72
2023-04-08T06:31:13.302Z,9.21
2023-04-08T06:33:41.556Z,9.45
2023-04-08T06:36:09.939Z,9.45
2023-04-08T06:38:38.140Z,9.59
2023-04-08T06:41:07.413Z,9.48
2023-04-08T06:43:37.922Z,9.38
2023-04-08T06:46:07.873Z,9.38
2023-04-08T06:48:37.829Z,9.18
2023-04-08T06:51:07.891Z,9.08
2023-04-08T06:53:36.272Z,9.03
2023-04-08T06:56:04.665Z,9.14
2023-04-08T06:58:32.907Z,9.41
2023-04-08T07:01:01.460Z,9.53
2023-04-08T07:03:31.240Z,9.59
2023-04-08T07:05:59.588Z,9.62
2023-04-08T07:08:27.880Z,9.39
2023-04-08T07:10:56.086Z,9.31
2023-04-08T07:13:24.304Z,9.30
2023-04-08T07:15:53.145Z,9.23
2023-04-08T07:18:21.903Z,9.15
2023-04-08T07:20:54.090Z,9.17
2023-04-08T07:23:22.760Z,9.40
2023-04-08T07:25:51.564Z,9.60
2023-04-08T07:28:19.835Z,9.92
2023-04-08T07:30:48.172Z,9.67
2023-04-08T07:33:16.672Z,9.61
2023-04-08T07:35:44.886Z,9.42
2023-04-08T07:38:14.494Z,9.47
2023-04-08T07:40:42.763Z,9.35
2023-04-08T07:43:11.266Z,9.24
2023-04-08T07:45:39.543Z,9.32
2023-04-08T07:48:08.265Z,9.35
2023-04-08T07:51:09.430Z,9.34
2023-04-08T07:53:27.822Z,9.25
2023-04-08T07:55:56.045Z,9.22
2023-04-08T07:58:25.382Z,9.36
2023-04-08T08:00:54.129Z,9.11
2023-04-08T08:03:22.447Z,9.20
2023-04-08T08:05:50.857Z,9.25
2023-04-08T08:08:19.109Z,9.25
2023-04-08T08:10:48.752Z,9.15
2023-04-08T08:13:21.200Z,9.10
2023-04-08T08:15:53.762Z,9.16
2023-04-08T08:18:22.146Z,9.10
2023-04-08T08:20:50.943Z,9.11
2023-04-08T08:23:19.328Z,9.15
2023-04-08T08:25:48.960Z,9.14
2023-04-08T08:28:17.296Z,9.27
2023-04-08T08:30:45.504Z,9.35
2023-04-08T08:33:13.727Z,9.24
2023-04-08T08:35:41.997Z,9.27
2023-04-08T08:38:10.309Z,9.38
2023-04-08T08:40:38.560Z,9.32
2023-04-08T08:43:08.229Z,9.35
2023-04-08T08:45:40.890Z,9.36
2023-04-08T08:48:09.772Z,9.39
2023-04-08T08:50:38.013Z,9.36
2023-04-08T08:53:06.210Z,9.34
2023-04-08T08:56:05.026Z,9.40
2023-04-08T08:58:27.935Z,9.40
2023-04-08T09:00:56.731Z,9.35
2023-04-08T09:03:27.778Z,9.36
2023-04-08T09:05:57.670Z,9.34
2023-04-08T09:08:30.525Z,9.45
2023-04-08T09:11:12.701Z,9.44
2023-04-08T09:13:43.309Z,9.44
2023-04-08T09:16:14.129Z,9.48
2023-04-08T09:18:44.718Z,9.49
2023-04-08T09:21:14.243Z,9.53
2023-04-08T09:23:44.534Z,9.46
2023-04-08T09:26:14.028Z,9.48
2023-04-08T09:28:45.743Z,9.55
2023-04-08T09:31:22.010Z,9.55
2023-04-08T09:33:51.483Z,9.49
2023-04-08T09:36:20.931Z,9.52
2023-04-08T09:38:49.474Z,9.54
2023-04-08T09:41:20.585Z,9.61
2023-04-08T09:43:57.049Z,9.64
2023-04-08T09:46:40.814Z,9.64
2023-04-08T09:49:13.804Z,9.63
2023-04-08T09:51:49.808Z,9.70
2023-04-08T09:54:23.858Z,9.71
2023-04-08T09:57:01.631Z,9.77
2023-04-08T09:59:34.011Z,9.86
2023-04-08T10:02:06.857Z,9.98
2023-04-08T10:04:39.844Z,10.14
2023-04-08T10:07:09.881Z,10.28
2023-04-08T10:09:41.526Z,10.19
2023-04-08T10:12:10.423Z,10.20
2023-04-08T10:14:40.558Z,10.27
2023-04-08T10:17:28.671Z,10.41
2023-04-08T10:19:58.667Z,10.67
2023-04-08T10:22:51.680Z,11.02
2023-04-08T10:25:33.829Z,11.19
2023-04-08T10:28:03.516Z,11.52
2023-04-08T10:30:42.927Z,11.66
2023-04-08T10:33:13.401Z,12.08
2023-04-08T10:35:46.384Z,12.59
2023-04-08T10:38:16.100Z,12.08
2023-04-08T10:40:45.990Z,12.63
2023-04-08T10:43:15.996Z,11.79
2023-04-08T10:45:51.292Z,11.99
2023-04-08T10:48:22.794Z,11.72
2023-04-08T10:50:55.940Z,12.00
2023-04-08T10:53:28.488Z,12.38
2023-04-08T10:56:04.363Z,12.32
2023-04-08T10:58:32.796Z,11.89
2023-04-08T11:01:07.653Z,11.63
2023-04-08T11:03:37.610Z,12.02
2023-04-08T11:06:07.551Z,12.23
2023-04-08T11:08:36.761Z,12.06
2023-04-08T11:11:09.104Z,12.10
2023-04-08T11:13:38.505Z,12.45
2023-04-08T11:16:17.689Z,12.47
2023-04-08T11:18:48.165Z,12.16
2023-04-08T11:21:17.523Z,12.42
2023-04-08T11:23:45.788Z,12.38
2023-04-08T11:26:16.551Z,12.46
2023-04-08T11:28:45.767Z,12.38
2023-04-08T11:31:15.635Z,12.85
2023-04-08T11:33:48.914Z,12.79
2023-04-08T11:36:19.375Z,13.06
2023-04-08T11:38:48.309Z,13.16
2023-04-08T11:41:17.670Z,13.21
2023-04-08T11:43:58.466Z,12.52
2023-04-08T11:46:28.418Z,12.52
2023-04-08T11:49:08.048Z,12.63
2023-04-08T11:51:54.881Z,12.30
2023-04-08T11:54:30.063Z,12.78
2023-04-08T11:56:59.145Z,13.15
2023-04-08T11:59:29.517Z,13.62
2023-04-08T12:01:59.439Z,13.43
2023-04-08T12:04:28.014Z,13.65
2023-04-08T12:06:58.147Z,13.71
2023-04-08T12:09:27.363Z,13.58
2023-04-08T12:11:56.823Z,13.70
2023-04-08T12:14:28.094Z,13.68
2023-04-08T12:16:56.743Z,13.68
2023-04-08T12:19:27.064Z,13.37
2023-04-08T12:21:55.439Z,12.91
2023-04-08T12:24:23.656Z,13.09
2023-04-08T12:26:51.858Z,12.89
2023-04-08T12:29:20.126Z,13.39
2023-04-08T12:31:48.438Z,13.89
2023-04-08T12:34:16.834Z,13.89
2023-04-08T12:36:47.529Z,14.36
2023-04-08T12:39:15.921Z,14.13
2023-04-08T12:41:44.178Z,14.08
2023-04-08T12:44:12.753Z,14.52
2023-04-08T12:46:41.069Z,14.49
2023-04-08T12:49:09.891Z,14.54
2023-04-08T12:51:38.109Z,13.99
2023-04-08T12:54:08.766Z,13.96
2023-04-08T12:56:37.101Z,13.70
2023-04-08T12:59:05.502Z,13.41
2023-04-08T13:01:33.776Z,13.07
2023-04-08T13:04:02.376Z,13.19
2023-04-08T13:06:32.047Z,13.21
2023-04-08T13:09:00.662Z,13.56
2023-04-08T13:11:30.462Z,13.97
2023-04-08T13:13:58.740Z,13.81
2023-04-08T13:16:27.312Z,13.90
2023-04-08T13:18:55.732Z,13.60
2023-04-08T13:21:24.175Z,13.78
2023-04-08T13:23:52.408Z,14.05
2023-04-08T13:26:20.690Z,13.85
2023-04-08T13:28:57.127Z,13.75
2023-04-08T13:31:26.595Z,13.79
2023-04-08T13:33:57.971Z,13.94
2023-04-08T13:36:28.616Z,13.96
2023-04-08T13:38:57.556Z,14.08
2023-04-08T13:41:28.163Z,14.25
2023-04-08T13:43:58.489Z,14.37
2023-04-08T13:46:26.865Z,14.48
2023-04-08T13:48:55.300Z,15.03
2023-04-08T13:51:23.605Z,15.40
2023-04-08T13:53:52.062Z,16.18
2023-04-08T13:56:21.056Z,15.02
2023-04-08T13:58:56.438Z,15.13
2023-04-08T14:01:26.981Z,16.10
2023-04-08T14:03:55.669Z,16.03
2023-04-08T14:06:23.910Z,16.22
2023-04-08T14:08:52.339Z,16.32
2023-04-08T14:11:21.386Z,15.96
2023-04-08T14:13:49.690Z,16.01
2023-04-08T14:16:17.979Z,15.14
2023-04-08T14:18:47.710Z,15.58
2023-04-08T14:21:18.199Z,15.89
2023-04-08T14:23:46.764Z,16.28
2023-04-08T14:26:15.101Z,16.02
2023-04-08T14:28:43.318Z,16.39
2023-04-08T14:31:12.593Z,15.57
2023-04-08T14:33:40.885Z,15.65
2023-04-08T14:36:11.397Z,15.78
2023-04-08T14:38:40.015Z,15.22
2023-04-08T14:41:08.666Z,15.25
2023-04-08T14:43:36.933Z,15.84
2023-04-08T14:46:05.624Z,16.65
2023-04-08T14:48:34.024Z,15.43
2023-04-08T14:51:02.384Z,14.75
2023-04-08T14:53:32.131Z,14.42
2023-04-08T14:56:00.506Z,14.21
2023-04-08T14:58:28.844Z,14.03
2023-04-08T15:00:57.065Z,13.94
2023-04-08T15:03:25.674Z,13.52
2023-04-08T15:05:57.598Z,13.47
2023-04-08T15:08:26.054Z,13.40
2023-04-08T15:10:55.671Z,13.51
2023-04-08T15:13:24.211Z,13.44
2023-04-08T15:15:52.448Z,13.53
2023-04-08T15:18:20.917Z,13.58
2023-04-08T15:20:49.214Z,13.48
2023-04-08T15:23:17.642Z,13.58
2023-04-08T15:25:46.431Z,13.75
2023-04-08T15:28:16.251Z,13.80
2023-04-08T15:30:44.853Z,13.82
2023-04-08T15:33:13.352Z,13.85
2023-04-08T15:35:41.977Z,13.96
2023-04-08T15:38:10.305Z,14.10
2023-04-08T15:40:38.643Z,14.42
2023-04-08T15:43:10.075Z,15.11
2023-04-08T15:45:44.149Z,15.16
2023-04-08T15:48:13.287Z,15.28
2023-04-08T15:50:41.850Z,15.12
2023-04-08T15:53:10.452Z,14.78
2023-04-08T15:55:39.998Z,14.93
2023-04-08T15:58:08.749Z,14.48
2023-04-08T16:00:43.816Z,14.14
2023-04-08T16:03:12.906Z,14.06
2023-04-08T16:05:41.748Z,13.89
2023-04-08T16:08:10.566Z,13.70
2023-04-08T16:10:38.807Z,13.62
2023-04-08T16:13:07.668Z,13.48
2023-04-08T16:15:36.434Z,13.40
2023-04-08T16:18:06.536Z,13.50
2023-04-08T16:20:37.952Z,13.38
2023-04-08T16:23:06.490Z,13.40
2023-04-08T16:25:34.762Z,13.43
2023-04-08T16:28:03.171Z,13.52
2023-04-08T16:30:31.462Z,13.85
2023-04-08T16:32:59.800Z,14.23
2023-04-08T16:35:29.488Z,14.54
2023-04-08T16:37:57.764Z,14.51
2023-04-08T16:40:26.248Z,14.29
2023-04-08T16:42:54.697Z,14.26
2023-04-08T16:45:22.931Z,14.29
2023-04-08T16:47:51.459Z,14.25
2023-04-08T16:50:19.751Z,14.56
2023-04-08T16:52:49.835Z,14.65
2023-04-08T16:55:18.677Z,15.01
2023-04-08T16:57:47.674Z,14.33
2023-04-08T17:00:18.713Z,14.01
2023-04-08T17:02:49.110Z,14.08
2023-04-08T17:05:17.933Z,13.94
2023-04-08T17:07:46.388Z,13.79
2023-04-08T17:10:16.522Z,13.62
2023-04-08T17:12:44.902Z,13.43
2023-04-08T17:15:13.461Z,13.37
2023-04-08T17:17:41.800Z,13.37
2023-04-08T17:20:11.223Z,13.33
2023-04-08T17:22:39.482Z,13.14
2023-04-08T17:25:08.728Z,13.05
2023-04-08T17:27:38.395Z,13.07
2023-04-08T17:30:08.952Z,13.05
2023-04-08T17:32:39.099Z,13.06
2023-04-08T17:35:07.816Z,12.84
2023-04-08T17:37:36.300Z,12.66
2023-04-08T17:40:04.695Z,12.45
2023-04-08T17:42:32.958Z,12.25
2023-04-08T17:45:02.835Z,12.04
2023-04-08T17:47:31.141Z,11.81
2023-04-08T17:49:59.408Z,11.74
2023-04-08T17:52:27.721Z,11.63
2023-04-08T17:54:55.972Z,11.55
2023-04-08T17:57:24.320Z,11.44
2023-04-08T17:59:52.853Z,11.33
2023-04-08T18:02:22.826Z,11.24
2023-04-08T18:04:51.654Z,11.24
2023-04-08T18:07:19.946Z,11.19
2023-04-08T18:09:49.217Z,11.13
2023-04-08T18:12:17.652Z,11.02
2023-04-08T18:14:45.932Z,10.99
2023-04-08T18:17:14.469Z,10.87
2023-04-08T18:19:44.218Z,10.84
2023-04-08T18:22:12.447Z,10.80
2023-04-08T18:24:40.956Z,10.72
2023-04-08T18:27:09.943Z,10.67
2023-04-08T18:29:38.200Z,10.59
2023-04-08T18:32:06.926Z,10.52
2023-04-08T18:34:35.307Z,10.43
2023-04-08T18:37:04.966Z,10.38
2023-04-08T18:39:33.223Z,10.35
2023-04-08T18:42:02.837Z,10.25
2023-04-08T18:44:31.056Z,10.20
2023-04-08T18:46:59.303Z,10.14
2023-04-08T18:49:29.957Z,10.11
2023-04-08T18:52:03.001Z,10.07
2023-04-08T18:54:33.432Z,10.08
2023-04-08T18:57:01.838Z,10.05
2023-04-08T18:59:30.190Z,10.05
2023-04-08T19:01:58.799Z,9.98
2023-04-08T19:04:27.467Z,10.00
2023-04-08T19:06:56.431Z,9.96
2023-04-08T19:09:24.698Z,9.98
2023-04-08T19:11:54.305Z,10.00
2023-04-08T19:14:22.577Z,9.96
2023-04-08T19:16:50.903Z,9.97
2023-04-08T19:19:19.123Z,9.98
2023-04-08T19:21:48.855Z,10.00
2023-04-08T19:24:17.171Z,10.00
2023-04-08T19:26:45.906Z,9.95
2023-04-08T19:29:15.560Z,10.00
2023-04-08T19:31:43.878Z,10.01
2023-04-08T19:34:12.453Z,9.97
2023-04-08T19:36:40.881Z,9.95
2023-04-08T19:39:09.175Z,9.96
2023-04-08T19:41:37.430Z,9.93
2023-04-08T19:44:05.673Z,9.89
2023-04-08T19:46:35.329Z,9.90
2023-04-08T19:49:03.806Z,9.80
2023-04-08T19:51:32.809Z,9.81
2023-04-08T19:54:01.124Z,9.70
2023-04-08T19:56:32.589Z,9.70
2023-04-08T19:59:01.397Z,9.67
2023-04-08T20:01:29.819Z,9.63
2023-04-08T20:03:59.629Z,9.67
2023-04-08T20:06:28.382Z,9.69
2023-04-08T20:09:05.160Z,9.64
2023-04-08T20:11:33.673Z,9.70
2023-04-08T20:14:02.013Z,9.67
2023-04-08T20:16:30.320Z,9.60
2023-04-08T20:19:00.002Z,9.55
2023-04-08T20:21:28.285Z,9.57
2023-04-08T20:23:57.675Z,9.54
2023-04-08T20:26:26.097Z,9.48
2023-04-08T20:28:56.952Z,9.44
2023-04-08T20:31:26.905Z,9.36
2023-04-08T20:33:55.563Z,9.30
2023-04-08T20:36:25.782Z,9.27
2023-04-08T20:38:54.948Z,9.18
2023-04-08T20:41:25.876Z,9.10
2023-04-08T20:43:55.426Z,9.04
2023-04-08T20:46:24.477Z,9.02
2023-04-08T20:48:53.150Z,9.00
2023-04-08T20:51:21.651Z,8.91
2023-04-08T20:53:51.265Z,8.89
2023-04-08T20:56:19.591Z,8.81
2023-04-08T20:58:47.826Z,8.73
2023-04-08T21:01:16.078Z,8.71
2023-04-08T21:03:44.509Z,8.67
2023-04-08T21:06:17.302Z,8.64
2023-04-08T21:08:45.714Z,8.64
2023-04-08T21:11:15.981Z,8.59
2023-04-08T21:13:46.601Z,8.52
2023-04-08T21:16:16.601Z,8.37
2023-04-08T21:18:44.908Z,8.29
2023-04-08T21:21:13.204Z,8.31
2023-04-08T21:23:41.647Z,8.20
2023-04-08T21:26:12.290Z,8.12
2023-04-08T21:28:41.934Z,8.02
2023-04-08T21:31:10.801Z,7.97
2023-04-08T21:33:39.537Z,7.94
2023-04-08T21:36:08.319Z,7.91
2023-04-08T21:38:37.235Z,8.06
2023-04-08T21:41:05.533Z,7.86
2023-04-08T21:43:33.864Z,7.79
2023-04-08T21:46:03.543Z,7.82
2023-04-08T21:48:31.810Z,7.92
2023-04-08T21:51:00.059Z,7.84
2023-04-08T21:53:28.373Z,7.79
2023-04-08T21:55:56.728Z,7.71
2023-04-08T21:58:24.996Z,7.74
2023-04-08T22:00:53.303Z,7.67
2023-04-08T22:03:23.203Z,7.60
2023-04-08T22:05:51.556Z,7.52
2023-04-08T22:08:19.890Z,7.44
2023-04-08T22:10:48.187Z,7.39
2023-04-08T22:13:18.719Z,7.40
2023-04-08T22:15:47.053Z,7.34
2023-04-08T22:18:15.614Z,7.32
2023-04-08T22:20:45.214Z,7.33
2023-04-08T22:23:13.465Z,7.30
2023-04-08T22:25:41.682Z,7.19
2023-04-08T22:28:09.955Z,7.17
2023-04-08T22:30:38.228Z,7.13
2023-04-08T22:33:06.519Z,7.10
2023-04-08T22:35:34.832Z,7.08
2023-04-08T22:38:04.491Z,7.03
2023-04-08T22:40:32.687Z,7.04
2023-04-08T22:43:01.182Z,7.02
2023-04-08T22:45:29.452Z,7.01
2023-04-08T22:47:57.750Z,6.94
2023-04-08T22:50:26.347Z,6.96
2023-04-08T22:52:54.639Z,6.94
2023-04-08T22:55:24.253Z,6.90
2023-04-08T22:57:52.513Z,7.00
2023-04-08T23:00:20.928Z,6.91
2023-04-08T23:02:49.322Z,7.02
2023-04-08T23:05:17.619Z,7.02
2023-04-08T23:07:45.880Z,7.12
2023-04-08T23:10:14.146Z,6.98
2023-04-08T23:12:43.815Z,6.99
2023-04-08T23:15:12.280Z,6.86
2023-04-08T23:17:40.524Z,6.87
2023-04-08T23:20:09.954Z,6.90
2023-04-08T23:22:38.333Z,6.84
2023-04-08T23:25:07.718Z,6.88
2023-04-08T23:27:35.934Z,6.74
2023-04-08T23:30:06.544Z,6.66
2023-04-08T23:32:34.944Z,6.81
2023-04-08T23:35:04.121Z,6.86
2023-04-08T23:37:32.385Z,6.93
2023-04-08T23:40:00.601Z,6.91
2023-04-08T23:42:28.902Z,7.03
2023-04-08T23:44:57.116Z,7.10
2023-04-08T23:47:26.765Z,7.18
2023-04-08T23:49:55.030Z,7.20
2023-04-08T23:52:23.322Z,7.22
2023-04-08T23:54:52.182Z,7.22
2023-04-08T23:57:21.338Z,7.33
2023-04-08T23:59:49.678Z,7.42
